sensor_id;sensor_type;location;lat;lon;timestamp;P1;durP1;ratioP1;P2;durP2;ratioP2
55031;SDS011;40928;51.076;7.950;2022-08-14T00:00:27;7.10;;;5.85;;
55031;SDS011;40928;51.076;7.950;2022-08-14T00:02:53;5.78;;;5.05;;
55031;SDS011;40928;51.076;7.950;2022-08-14T00:05:19;5.47;;;4.63;;
55031;SDS011;40928;51.076;7.950;2022-08-14T00:07:46;5.68;;;4.90;;
55031;SDS011;40928;51.076;7.950;2022-08-14T00:10:15;6.30;;;5.68;;
55031;SDS011;40928;51.076;7.950;2022-08-14T00:12:47;9.70;;;5.30;;
55031;SDS011;40928;51.076;7.950;2022-08-14T00:15:18;6.05;;;5.13;;
55031;SDS011;40928;51.076;7.950;2022-08-14T00:17:44;6.88;;;5.35;;
55031;SDS011;40928;51.076;7.950;2022-08-14T00:20:11;12.20;;;5.15;;
55031;SDS011;40928;51.076;7.950;2022-08-14T00:22:37;6.88;;;4.88;;
55031;SDS011;40928;51.076;7.950;2022-08-14T00:25:03;6.93;;;5.18;;
55031;SDS011;40928;51.076;7.950;2022-08-14T00:27:30;7.20;;;5.05;;
55031;SDS011;40928;51.076;7.950;2022-08-14T00:29:56;7.22;;;5.30;;
55031;SDS011;40928;51.076;7.950;2022-08-14T00:32:21;5.80;;;5.07;;
55031;SDS011;40928;51.076;7.950;2022-08-14T00:34:47;7.70;;;5.85;;
55031;SDS011;40928;51.076;7.950;2022-08-14T00:37:12;8.63;;;5.38;;
55031;SDS011;40928;51.076;7.950;2022-08-14T00:39:38;8.32;;;5.60;;
55031;SDS011;40928;51.076;7.950;2022-08-14T00:42:04;7.03;;;5.00;;
55031;SDS011;40928;51.076;7.950;2022-08-14T00:44:29;7.60;;;4.97;;
55031;SDS011;40928;51.076;7.950;2022-08-14T00:46:55;6.05;;;5.43;;
55031;SDS011;40928;51.076;7.950;2022-08-14T00:49:20;7.68;;;6.00;;
55031;SDS011;40928;51.076;7.950;2022-08-14T00:51:47;9.23;;;6.10;;
55031;SDS011;40928;51.076;7.950;2022-08-14T00:54:12;7.38;;;6.15;;
55031;SDS011;40928;51.076;7.950;2022-08-14T00:56:39;9.13;;;5.57;;
55031;SDS011;40928;51.076;7.950;2022-08-14T00:59:04;9.95;;;6.68;;
55031;SDS011;40928;51.076;7.950;2022-08-14T01:01:30;9.60;;;6.03;;
55031;SDS011;40928;51.076;7.950;2022-08-14T01:03:57;8.77;;;6.70;;
55031;SDS011;40928;51.076;7.950;2022-08-14T01:06:25;7.53;;;5.75;;
55031;SDS011;40928;51.076;7.950;2022-08-14T01:08:52;7.18;;;6.00;;
55031;SDS011;40928;51.076;7.950;2022-08-14T01:11:19;6.95;;;5.95;;
55031;SDS011;40928;51.076;7.950;2022-08-14T01:13:46;8.32;;;6.18;;
55031;SDS011;40928;51.076;7.950;2022-08-14T01:16:15;10.00;;;8.50;;
55031;SDS011;40928;51.076;7.950;2022-08-14T01:18:41;8.13;;;5.95;;
55031;SDS011;40928;51.076;7.950;2022-08-14T01:21:30;8.02;;;6.30;;
55031;SDS011;40928;51.076;7.950;2022-08-14T01:24:00;6.75;;;5.30;;
55031;SDS011;40928;51.076;7.950;2022-08-14T01:26:27;6.75;;;5.70;;
55031;SDS011;40928;51.076;7.950;2022-08-14T01:28:54;7.35;;;5.80;;
55031;SDS011;40928;51.076;7.950;2022-08-14T01:31:27;11.27;;;6.90;;
55031;SDS011;40928;51.076;7.950;2022-08-14T01:33:55;8.65;;;6.22;;
55031;SDS011;40928;51.076;7.950;2022-08-14T01:36:23;7.43;;;6.20;;
55031;SDS011;40928;51.076;7.950;2022-08-14T01:38:51;7.30;;;6.13;;
55031;SDS011;40928;51.076;7.950;2022-08-14T01:41:22;7.45;;;6.60;;
55031;SDS011;40928;51.076;7.950;2022-08-14T01:43:52;5.45;;;4.78;;
55031;SDS011;40928;51.076;7.950;2022-08-14T01:46:26;6.63;;;5.80;;
55031;SDS011;40928;51.076;7.950;2022-08-14T01:48:59;6.72;;;5.93;;
55031;SDS011;40928;51.076;7.950;2022-08-14T01:51:26;7.10;;;5.80;;
55031;SDS011;40928;51.076;7.950;2022-08-14T01:53:54;10.15;;;7.03;;
55031;SDS011;40928;51.076;7.950;2022-08-14T01:56:21;9.82;;;6.72;;
55031;SDS011;40928;51.076;7.950;2022-08-14T01:58:57;6.90;;;6.20;;
55031;SDS011;40928;51.076;7.950;2022-08-14T02:01:22;7.53;;;5.95;;
55031;SDS011;40928;51.076;7.950;2022-08-14T02:03:48;9.95;;;7.38;;
55031;SDS011;40928;51.076;7.950;2022-08-14T02:06:14;9.55;;;7.25;;
55031;SDS011;40928;51.076;7.950;2022-08-14T02:08:40;8.57;;;6.47;;
55031;SDS011;40928;51.076;7.950;2022-08-14T02:11:06;13.10;;;6.90;;
55031;SDS011;40928;51.076;7.950;2022-08-14T02:13:47;7.57;;;6.47;;
55031;SDS011;40928;51.076;7.950;2022-08-14T02:16:23;7.80;;;6.85;;
55031;SDS011;40928;51.076;7.950;2022-08-14T02:18:53;9.82;;;6.90;;
55031;SDS011;40928;51.076;7.950;2022-08-14T02:21:20;10.48;;;7.75;;
55031;SDS011;40928;51.076;7.950;2022-08-14T02:23:46;8.73;;;7.53;;
55031;SDS011;40928;51.076;7.950;2022-08-14T02:26:24;7.80;;;6.72;;
55031;SDS011;40928;51.076;7.950;2022-08-14T02:28:53;9.32;;;6.57;;
55031;SDS011;40928;51.076;7.950;2022-08-14T02:31:26;11.75;;;6.63;;
55031;SDS011;40928;51.076;7.950;2022-08-14T02:33:56;7.05;;;6.35;;
55031;SDS011;40928;51.076;7.950;2022-08-14T02:36:35;7.40;;;6.07;;
55031;SDS011;40928;51.076;7.950;2022-08-14T02:39:01;9.73;;;6.65;;
55031;SDS011;40928;51.076;7.950;2022-08-14T02:41:27;7.47;;;6.68;;
55031;SDS011;40928;51.076;7.950;2022-08-14T02:43:53;8.68;;;6.82;;
55031;SDS011;40928;51.076;7.950;2022-08-14T02:46:18;7.70;;;6.63;;
55031;SDS011;40928;51.076;7.950;2022-08-14T02:48:46;7.57;;;6.70;;
55031;SDS011;40928;51.076;7.950;2022-08-14T02:51:12;6.97;;;6.25;;
55031;SDS011;40928;51.076;7.950;2022-08-14T02:53:39;10.27;;;6.53;;
55031;SDS011;40928;51.076;7.950;2022-08-14T02:56:09;9.90;;;7.68;;
55031;SDS011;40928;51.076;7.950;2022-08-14T02:58:39;10.07;;;7.75;;
55031;SDS011;40928;51.076;7.950;2022-08-14T03:01:11;12.65;;;8.00;;
55031;SDS011;40928;51.076;7.950;2022-08-14T03:03:38;8.80;;;6.45;;
55031;SDS011;40928;51.076;7.950;2022-08-14T03:06:04;13.65;;;7.40;;
55031;SDS011;40928;51.076;7.950;2022-08-14T03:08:31;7.75;;;6.75;;
55031;SDS011;40928;51.076;7.950;2022-08-14T03:10:58;8.52;;;6.93;;
55031;SDS011;40928;51.076;7.950;2022-08-14T03:13:25;8.75;;;7.10;;
55031;SDS011;40928;51.076;7.950;2022-08-14T03:15:51;11.90;;;7.65;;
55031;SDS011;40928;51.076;7.950;2022-08-14T03:18:18;9.68;;;7.30;;
55031;SDS011;40928;51.076;7.950;2022-08-14T03:20:49;9.65;;;7.10;;
55031;SDS011;40928;51.076;7.950;2022-08-14T03:23:15;9.43;;;7.45;;
55031;SDS011;40928;51.076;7.950;2022-08-14T03:25:41;9.68;;;7.57;;
55031;SDS011;40928;51.076;7.950;2022-08-14T03:28:08;12.38;;;7.32;;
55031;SDS011;40928;51.076;7.950;2022-08-14T03:30:34;10.18;;;7.70;;
55031;SDS011;40928;51.076;7.950;2022-08-14T03:33:02;10.43;;;8.35;;
55031;SDS011;40928;51.076;7.950;2022-08-14T03:35:28;7.50;;;6.47;;
55031;SDS011;40928;51.076;7.950;2022-08-14T03:37:55;9.82;;;7.53;;
55031;SDS011;40928;51.076;7.950;2022-08-14T03:40:33;9.32;;;7.68;;
55031;SDS011;40928;51.076;7.950;2022-08-14T03:42:58;7.63;;;6.53;;
55031;SDS011;40928;51.076;7.950;2022-08-14T03:45:24;10.60;;;7.55;;
55031;SDS011;40928;51.076;7.950;2022-08-14T03:47:49;10.40;;;7.40;;
55031;SDS011;40928;51.076;7.950;2022-08-14T03:50:15;10.18;;;7.18;;
55031;SDS011;40928;51.076;7.950;2022-08-14T03:52:40;7.95;;;6.82;;
55031;SDS011;40928;51.076;7.950;2022-08-14T03:55:09;10.30;;;7.35;;
55031;SDS011;40928;51.076;7.950;2022-08-14T03:57:37;8.55;;;6.82;;
55031;SDS011;40928;51.076;7.950;2022-08-14T04:00:05;10.48;;;7.65;;
55031;SDS011;40928;51.076;7.950;2022-08-14T04:02:37;9.55;;;7.10;;
55031;SDS011;40928;51.076;7.950;2022-08-14T04:05:04;9.52;;;6.43;;
55031;SDS011;40928;51.076;7.950;2022-08-14T04:07:34;8.65;;;7.22;;
55031;SDS011;40928;51.076;7.950;2022-08-14T04:10:01;9.25;;;7.28;;
55031;SDS011;40928;51.076;7.950;2022-08-14T04:12:26;11.35;;;6.97;;
55031;SDS011;40928;51.076;7.950;2022-08-14T04:14:52;10.27;;;7.97;;
55031;SDS011;40928;51.076;7.950;2022-08-14T04:17:20;9.43;;;7.47;;
55031;SDS011;40928;51.076;7.950;2022-08-14T04:19:46;11.30;;;7.55;;
55031;SDS011;40928;51.076;7.950;2022-08-14T04:22:12;8.98;;;7.40;;
55031;SDS011;40928;51.076;7.950;2022-08-14T04:24:38;8.70;;;7.40;;
55031;SDS011;40928;51.076;7.950;2022-08-14T04:27:05;9.20;;;7.20;;
55031;SDS011;40928;51.076;7.950;2022-08-14T04:29:34;10.50;;;7.43;;
55031;SDS011;40928;51.076;7.950;2022-08-14T04:32:05;8.95;;;7.45;;
55031;SDS011;40928;51.076;7.950;2022-08-14T04:34:32;9.25;;;7.28;;
55031;SDS011;40928;51.076;7.950;2022-08-14T04:36:59;9.85;;;7.28;;
55031;SDS011;40928;51.076;7.950;2022-08-14T04:39:44;9.88;;;6.85;;
55031;SDS011;40928;51.076;7.950;2022-08-14T04:42:28;9.40;;;7.15;;
55031;SDS011;40928;51.076;7.950;2022-08-14T04:45:12;9.50;;;7.93;;
55031;SDS011;40928;51.076;7.950;2022-08-14T04:47:39;12.77;;;8.13;;
55031;SDS011;40928;51.076;7.950;2022-08-14T04:50:23;9.27;;;8.10;;
55031;SDS011;40928;51.076;7.950;2022-08-14T04:52:49;12.18;;;8.68;;
55031;SDS011;40928;51.076;7.950;2022-08-14T04:55:15;13.00;;;7.70;;
55031;SDS011;40928;51.076;7.950;2022-08-14T04:57:40;12.45;;;8.10;;
55031;SDS011;40928;51.076;7.950;2022-08-14T05:00:07;11.27;;;7.47;;
55031;SDS011;40928;51.076;7.950;2022-08-14T05:02:32;9.80;;;8.13;;
55031;SDS011;40928;51.076;7.950;2022-08-14T05:04:58;10.43;;;8.15;;
55031;SDS011;40928;51.076;7.950;2022-08-14T05:07:24;9.27;;;7.85;;
55031;SDS011;40928;51.076;7.950;2022-08-14T05:09:50;7.70;;;6.60;;
55031;SDS011;40928;51.076;7.950;2022-08-14T05:12:15;9.82;;;6.93;;
55031;SDS011;40928;51.076;7.950;2022-08-14T05:14:41;9.57;;;7.45;;
55031;SDS011;40928;51.076;7.950;2022-08-14T05:17:07;11.45;;;7.80;;
55031;SDS011;40928;51.076;7.950;2022-08-14T05:19:34;10.40;;;7.28;;
55031;SDS011;40928;51.076;7.950;2022-08-14T05:22:00;10.35;;;8.27;;
55031;SDS011;40928;51.076;7.950;2022-08-14T05:24:26;9.95;;;7.63;;
55031;SDS011;40928;51.076;7.950;2022-08-14T05:26:52;11.60;;;8.88;;
55031;SDS011;40928;51.076;7.950;2022-08-14T05:29:18;10.27;;;7.90;;
55031;SDS011;40928;51.076;7.950;2022-08-14T05:31:43;10.25;;;8.00;;
55031;SDS011;40928;51.076;7.950;2022-08-14T05:34:09;9.98;;;7.35;;
55031;SDS011;40928;51.076;7.950;2022-08-14T05:36:35;8.77;;;7.38;;
55031;SDS011;40928;51.076;7.950;2022-08-14T05:39:01;11.48;;;8.18;;
55031;SDS011;40928;51.076;7.950;2022-08-14T05:41:27;10.85;;;8.02;;
55031;SDS011;40928;51.076;7.950;2022-08-14T05:43:53;10.30;;;7.57;;
55031;SDS011;40928;51.076;7.950;2022-08-14T05:46:19;10.32;;;7.50;;
55031;SDS011;40928;51.076;7.950;2022-08-14T05:48:48;10.18;;;8.35;;
55031;SDS011;40928;51.076;7.950;2022-08-14T05:51:20;11.25;;;8.10;;
55031;SDS011;40928;51.076;7.950;2022-08-14T05:53:47;8.45;;;7.10;;
55031;SDS011;40928;51.076;7.950;2022-08-14T05:56:14;9.52;;;7.05;;
55031;SDS011;40928;51.076;7.950;2022-08-14T05:58:39;8.02;;;6.72;;
55031;SDS011;40928;51.076;7.950;2022-08-14T06:01:05;10.15;;;7.70;;
55031;SDS011;40928;51.076;7.950;2022-08-14T06:03:31;8.93;;;6.82;;
55031;SDS011;40928;51.076;7.950;2022-08-14T06:05:57;9.65;;;6.93;;
55031;SDS011;40928;51.076;7.950;2022-08-14T06:08:23;7.07;;;5.93;;
55031;SDS011;40928;51.076;7.950;2022-08-14T06:10:52;7.32;;;6.45;;
55031;SDS011;40928;51.076;7.950;2022-08-14T06:13:19;7.20;;;6.18;;
55031;SDS011;40928;51.076;7.950;2022-08-14T06:15:46;7.95;;;7.13;;
55031;SDS011;40928;51.076;7.950;2022-08-14T06:18:14;7.75;;;6.95;;
55031;SDS011;40928;51.076;7.950;2022-08-14T06:20:40;9.90;;;7.93;;
55031;SDS011;40928;51.076;7.950;2022-08-14T06:23:05;12.32;;;8.48;;
55031;SDS011;40928;51.076;7.950;2022-08-14T06:25:31;9.70;;;8.23;;
55031;SDS011;40928;51.076;7.950;2022-08-14T06:27:56;9.73;;;7.57;;
55031;SDS011;40928;51.076;7.950;2022-08-14T06:30:24;10.18;;;7.93;;
55031;SDS011;40928;51.076;7.950;2022-08-14T06:32:51;8.48;;;7.68;;
55031;SDS011;40928;51.076;7.950;2022-08-14T06:35:17;9.45;;;8.43;;
55031;SDS011;40928;51.076;7.950;2022-08-14T06:37:46;8.32;;;7.50;;
55031;SDS011;40928;51.076;7.950;2022-08-14T06:40:14;9.48;;;6.82;;
55031;SDS011;40928;51.076;7.950;2022-08-14T06:42:42;8.57;;;7.25;;
55031;SDS011;40928;51.076;7.950;2022-08-14T06:45:08;8.98;;;6.43;;
55031;SDS011;40928;51.076;7.950;2022-08-14T06:47:35;8.05;;;6.65;;
55031;SDS011;40928;51.076;7.950;2022-08-14T06:50:03;8.05;;;7.00;;
55031;SDS011;40928;51.076;7.950;2022-08-14T06:52:30;9.98;;;7.15;;
55031;SDS011;40928;51.076;7.950;2022-08-14T06:54:56;8.80;;;6.90;;
55031;SDS011;40928;51.076;7.950;2022-08-14T06:57:22;8.15;;;6.80;;
55031;SDS011;40928;51.076;7.950;2022-08-14T06:59:48;13.55;;;7.35;;
55031;SDS011;40928;51.076;7.950;2022-08-14T07:02:14;9.05;;;7.35;;
55031;SDS011;40928;51.076;7.950;2022-08-14T07:04:58;10.23;;;7.23;;
55031;SDS011;40928;51.076;7.950;2022-08-14T07:07:43;10.55;;;7.10;;
55031;SDS011;40928;51.076;7.950;2022-08-14T07:10:09;8.75;;;7.30;;
55031;SDS011;40928;51.076;7.950;2022-08-14T07:12:35;9.43;;;7.35;;
55031;SDS011;40928;51.076;7.950;2022-08-14T07:15:01;11.43;;;7.25;;
55031;SDS011;40928;51.076;7.950;2022-08-14T07:17:28;10.65;;;6.50;;
55031;SDS011;40928;51.076;7.950;2022-08-14T07:19:54;8.25;;;6.50;;
55031;SDS011;40928;51.076;7.950;2022-08-14T07:22:20;11.27;;;7.40;;
55031;SDS011;40928;51.076;7.950;2022-08-14T07:27:50;8.25;;;5.35;;
55031;SDS011;40928;51.076;7.950;2022-08-14T07:33:14;7.22;;;5.22;;
55031;SDS011;40928;51.076;7.950;2022-08-14T07:35:42;6.55;;;5.72;;
55031;SDS011;40928;51.076;7.950;2022-08-14T07:38:15;7.50;;;5.70;;
55031;SDS011;40928;51.076;7.950;2022-08-14T07:40:48;6.05;;;5.45;;
55031;SDS011;40928;51.076;7.950;2022-08-14T07:43:15;6.60;;;5.68;;
55031;SDS011;40928;51.076;7.950;2022-08-14T07:45:42;7.32;;;5.45;;
55031;SDS011;40928;51.076;7.950;2022-08-14T07:48:09;7.28;;;5.45;;
55031;SDS011;40928;51.076;7.950;2022-08-14T07:50:39;6.43;;;5.00;;
55031;SDS011;40928;51.076;7.950;2022-08-14T07:53:18;7.85;;;5.30;;
55031;SDS011;40928;51.076;7.950;2022-08-14T08:02:11;6.00;;;4.72;;
55031;SDS011;40928;51.076;7.950;2022-08-14T08:04:44;5.15;;;4.63;;
55031;SDS011;40928;51.076;7.950;2022-08-14T08:07:21;5.22;;;4.32;;
55031;SDS011;40928;51.076;7.950;2022-08-14T08:09:55;5.60;;;4.95;;
55031;SDS011;40928;51.076;7.950;2022-08-14T08:12:22;6.07;;;4.30;;
55031;SDS011;40928;51.076;7.950;2022-08-14T08:14:52;7.82;;;4.43;;
55031;SDS011;40928;51.076;7.950;2022-08-14T08:17:18;6.00;;;4.45;;
55031;SDS011;40928;51.076;7.950;2022-08-14T08:19:45;4.93;;;4.40;;
55031;SDS011;40928;51.076;7.950;2022-08-14T08:22:14;5.78;;;4.65;;
55031;SDS011;40928;51.076;7.950;2022-08-14T08:24:40;7.38;;;4.68;;
55031;SDS011;40928;51.076;7.950;2022-08-14T08:27:17;8.88;;;4.65;;
55031;SDS011;40928;51.076;7.950;2022-08-14T08:30:24;4.73;;;3.57;;
55031;SDS011;40928;51.076;7.950;2022-08-14T08:33:44;4.90;;;3.90;;
55031;SDS011;40928;51.076;7.950;2022-08-14T08:37:15;4.70;;;3.83;;
55031;SDS011;40928;51.076;7.950;2022-08-14T08:39:54;4.97;;;3.58;;
55031;SDS011;40928;51.076;7.950;2022-08-14T08:42:25;6.20;;;3.40;;
55031;SDS011;40928;51.076;7.950;2022-08-14T08:44:54;4.20;;;3.60;;
55031;SDS011;40928;51.076;7.950;2022-08-14T08:47:20;5.07;;;3.85;;
55031;SDS011;40928;51.076;7.950;2022-08-14T08:49:46;7.15;;;3.95;;
55031;SDS011;40928;51.076;7.950;2022-08-14T08:52:12;4.43;;;3.75;;
55031;SDS011;40928;51.076;7.950;2022-08-14T08:54:38;7.32;;;3.92;;
55031;SDS011;40928;51.076;7.950;2022-08-14T08:57:11;4.30;;;3.60;;
55031;SDS011;40928;51.076;7.950;2022-08-14T08:59:37;4.80;;;3.83;;
55031;SDS011;40928;51.076;7.950;2022-08-14T09:04:29;5.05;;;4.03;;
55031;SDS011;40928;51.076;7.950;2022-08-14T09:06:59;5.38;;;3.92;;
55031;SDS011;40928;51.076;7.950;2022-08-14T09:09:38;4.22;;;3.60;;
55031;SDS011;40928;51.076;7.950;2022-08-14T09:12:30;4.85;;;3.78;;
55031;SDS011;40928;51.076;7.950;2022-08-14T09:15:35;4.32;;;3.80;;
55031;SDS011;40928;51.076;7.950;2022-08-14T09:18:17;5.65;;;3.42;;
55031;SDS011;40928;51.076;7.950;2022-08-14T09:20:50;3.95;;;3.55;;
55031;SDS011;40928;51.076;7.950;2022-08-14T09:23:23;5.10;;;3.53;;
55031;SDS011;40928;51.076;7.950;2022-08-14T09:25:53;4.50;;;3.97;;
55031;SDS011;40928;51.076;7.950;2022-08-14T09:28:21;3.97;;;3.40;;
55031;SDS011;40928;51.076;7.950;2022-08-14T09:30:54;3.97;;;3.53;;
55031;SDS011;40928;51.076;7.950;2022-08-14T09:38:47;4.67;;;3.93;;
55031;SDS011;40928;51.076;7.950;2022-08-14T09:41:43;5.15;;;3.17;;
55031;SDS011;40928;51.076;7.950;2022-08-14T09:48:14;5.18;;;3.13;;
55031;SDS011;40928;51.076;7.950;2022-08-14T09:50:57;3.63;;;3.33;;
55031;SDS011;40928;51.076;7.950;2022-08-14T09:56:50;4.50;;;3.75;;
55031;SDS011;40928;51.076;7.950;2022-08-14T09:59:25;3.65;;;3.13;;
55031;SDS011;40928;51.076;7.950;2022-08-14T10:02:21;3.53;;;3.22;;
55031;SDS011;40928;51.076;7.950;2022-08-14T10:05:08;5.57;;;3.60;;
55031;SDS011;40928;51.076;7.950;2022-08-14T10:08:52;6.35;;;3.50;;
55031;SDS011;40928;51.076;7.950;2022-08-14T10:12:01;6.15;;;3.58;;
55031;SDS011;40928;51.076;7.950;2022-08-14T10:14:53;4.50;;;3.35;;
55031;SDS011;40928;51.076;7.950;2022-08-14T10:17:22;3.67;;;3.10;;
55031;SDS011;40928;51.076;7.950;2022-08-14T10:19:51;5.20;;;3.25;;
55031;SDS011;40928;51.076;7.950;2022-08-14T10:22:22;4.65;;;3.03;;
55031;SDS011;40928;51.076;7.950;2022-08-14T10:24:49;5.20;;;3.50;;
55031;SDS011;40928;51.076;7.950;2022-08-14T10:27:21;5.72;;;3.47;;
55031;SDS011;40928;51.076;7.950;2022-08-14T10:29:52;4.28;;;2.78;;
55031;SDS011;40928;51.076;7.950;2022-08-14T10:32:20;4.95;;;3.67;;
55031;SDS011;40928;51.076;7.950;2022-08-14T10:34:47;3.70;;;3.40;;
55031;SDS011;40928;51.076;7.950;2022-08-14T10:37:14;4.20;;;3.75;;
55031;SDS011;40928;51.076;7.950;2022-08-14T10:39:45;4.25;;;3.63;;
55031;SDS011;40928;51.076;7.950;2022-08-14T10:42:33;3.10;;;2.80;;
55031;SDS011;40928;51.076;7.950;2022-08-14T10:45:00;3.80;;;2.92;;
55031;SDS011;40928;51.076;7.950;2022-08-14T10:47:32;3.70;;;3.40;;
55031;SDS011;40928;51.076;7.950;2022-08-14T10:50:00;4.07;;;3.20;;
55031;SDS011;40928;51.076;7.950;2022-08-14T10:52:28;3.42;;;3.13;;
55031;SDS011;40928;51.076;7.950;2022-08-14T10:57:49;5.30;;;3.40;;
55031;SDS011;40928;51.076;7.950;2022-08-14T11:00:21;2.97;;;2.78;;
55031;SDS011;40928;51.076;7.950;2022-08-14T11:03:04;3.03;;;2.72;;
55031;SDS011;40928;51.076;7.950;2022-08-14T11:08:08;6.40;;;2.75;;
55031;SDS011;40928;51.076;7.950;2022-08-14T11:10:38;3.03;;;2.65;;
55031;SDS011;40928;51.076;7.950;2022-08-14T11:13:09;3.10;;;2.80;;
55031;SDS011;40928;51.076;7.950;2022-08-14T11:15:43;3.45;;;2.85;;
55031;SDS011;40928;51.076;7.950;2022-08-14T11:18:10;3.03;;;2.83;;
55031;SDS011;40928;51.076;7.950;2022-08-14T11:20:36;3.10;;;2.80;;
55031;SDS011;40928;51.076;7.950;2022-08-14T11:23:03;3.08;;;2.78;;
55031;SDS011;40928;51.076;7.950;2022-08-14T11:25:33;2.72;;;2.50;;
55031;SDS011;40928;51.076;7.950;2022-08-14T11:28:01;4.05;;;2.60;;
55031;SDS011;40928;51.076;7.950;2022-08-14T11:30:28;3.75;;;2.50;;
55031;SDS011;40928;51.076;7.950;2022-08-14T11:32:55;3.92;;;2.70;;
55031;SDS011;40928;51.076;7.950;2022-08-14T11:35:23;6.90;;;3.90;;
55031;SDS011;40928;51.076;7.950;2022-08-14T11:37:54;3.10;;;2.80;;
55031;SDS011;40928;51.076;7.950;2022-08-14T11:40:23;4.10;;;2.88;;
55031;SDS011;40928;51.076;7.950;2022-08-14T11:42:51;2.75;;;2.55;;
55031;SDS011;40928;51.076;7.950;2022-08-14T11:45:24;4.32;;;2.47;;
55031;SDS011;40928;51.076;7.950;2022-08-14T11:47:52;2.95;;;2.58;;
55031;SDS011;40928;51.076;7.950;2022-08-14T11:50:24;6.05;;;2.40;;
55031;SDS011;40928;51.076;7.950;2022-08-14T11:55:20;5.03;;;2.78;;
55031;SDS011;40928;51.076;7.950;2022-08-14T11:57:46;3.08;;;2.70;;
55031;SDS011;40928;51.076;7.950;2022-08-14T12:00:27;2.60;;;2.40;;
55031;SDS011;40928;51.076;7.950;2022-08-14T12:02:55;4.30;;;2.60;;
55031;SDS011;40928;51.076;7.950;2022-08-14T12:05:37;3.30;;;3.00;;
55031;SDS011;40928;51.076;7.950;2022-08-14T12:08:07;3.22;;;2.92;;
55031;SDS011;40928;51.076;7.950;2022-08-14T12:10:34;2.67;;;2.47;;
55031;SDS011;40928;51.076;7.950;2022-08-14T12:13:17;2.63;;;2.00;;
55031;SDS011;40928;51.076;7.950;2022-08-14T12:15:47;4.32;;;2.78;;
55031;SDS011;40928;51.076;7.950;2022-08-14T12:18:31;3.63;;;2.70;;
55031;SDS011;40928;51.076;7.950;2022-08-14T12:21:09;4.55;;;2.95;;
55031;SDS011;40928;51.076;7.950;2022-08-14T12:24:07;5.22;;;3.42;;
55031;SDS011;40928;51.076;7.950;2022-08-14T12:26:34;2.97;;;2.67;;
55031;SDS011;40928;51.076;7.950;2022-08-14T12:29:05;5.00;;;2.58;;
55031;SDS011;40928;51.076;7.950;2022-08-14T12:31:32;3.30;;;2.97;;
55031;SDS011;40928;51.076;7.950;2022-08-14T12:33:59;3.83;;;2.80;;
55031;SDS011;40928;51.076;7.950;2022-08-14T12:36:26;2.78;;;2.47;;
55031;SDS011;40928;51.076;7.950;2022-08-14T12:38:58;2.63;;;2.30;;
55031;SDS011;40928;51.076;7.950;2022-08-14T12:41:27;2.40;;;2.20;;
55031;SDS011;40928;51.076;7.950;2022-08-14T12:43:58;2.25;;;2.05;;
55031;SDS011;40928;51.076;7.950;2022-08-14T12:48:53;5.05;;;2.58;;
55031;SDS011;40928;51.076;7.950;2022-08-14T12:51:21;2.30;;;1.90;;
55031;SDS011;40928;51.076;7.950;2022-08-14T12:53:50;2.47;;;2.28;;
55031;SDS011;40928;51.076;7.950;2022-08-14T12:56:18;3.80;;;2.15;;
55031;SDS011;40928;51.076;7.950;2022-08-14T12:58:48;5.25;;;2.42;;
55031;SDS011;40928;51.076;7.950;2022-08-14T13:01:20;2.78;;;2.00;;
55031;SDS011;40928;51.076;7.950;2022-08-14T13:04:10;2.63;;;2.42;;
55031;SDS011;40928;51.076;7.950;2022-08-14T13:06:38;3.95;;;2.08;;
55031;SDS011;40928;51.076;7.950;2022-08-14T13:09:06;3.38;;;2.20;;
55031;SDS011;40928;51.076;7.950;2022-08-14T13:11:37;3.72;;;2.28;;
55031;SDS011;40928;51.076;7.950;2022-08-14T13:14:13;2.30;;;2.10;;
55031;SDS011;40928;51.076;7.950;2022-08-14T13:16:41;2.88;;;1.88;;
55031;SDS011;40928;51.076;7.950;2022-08-14T13:19:13;3.25;;;2.40;;
55031;SDS011;40928;51.076;7.950;2022-08-14T13:21:41;2.40;;;2.20;;
55031;SDS011;40928;51.076;7.950;2022-08-14T13:24:08;2.95;;;2.38;;
55031;SDS011;40928;51.076;7.950;2022-08-14T13:26:46;4.68;;;2.20;;
55031;SDS011;40928;51.076;7.950;2022-08-14T13:29:19;3.75;;;2.47;;
55031;SDS011;40928;51.076;7.950;2022-08-14T13:31:48;2.50;;;2.20;;
55031;SDS011;40928;51.076;7.950;2022-08-14T13:34:16;3.38;;;2.60;;
55031;SDS011;40928;51.076;7.950;2022-08-14T13:36:44;3.33;;;2.50;;
55031;SDS011;40928;51.076;7.950;2022-08-14T13:39:10;3.22;;;2.35;;
55031;SDS011;40928;51.076;7.950;2022-08-14T13:41:40;2.28;;;2.03;;
55031;SDS011;40928;51.076;7.950;2022-08-14T13:44:07;2.78;;;2.30;;
55031;SDS011;40928;51.076;7.950;2022-08-14T13:46:33;3.20;;;2.90;;
55031;SDS011;40928;51.076;7.950;2022-08-14T13:48:58;3.05;;;2.75;;
55031;SDS011;40928;51.076;7.950;2022-08-14T13:51:24;2.55;;;2.35;;
55031;SDS011;40928;51.076;7.950;2022-08-14T13:53:56;3.20;;;2.90;;
55031;SDS011;40928;51.076;7.950;2022-08-14T13:56:24;6.88;;;2.70;;
55031;SDS011;40928;51.076;7.950;2022-08-14T13:58:52;3.30;;;2.70;;
55031;SDS011;40928;51.076;7.950;2022-08-14T14:01:21;2.80;;;2.60;;
55031;SDS011;40928;51.076;7.950;2022-08-14T14:03:51;4.72;;;2.90;;
55031;SDS011;40928;51.076;7.950;2022-08-14T14:06:20;2.75;;;2.55;;
55031;SDS011;40928;51.076;7.950;2022-08-14T14:08:48;3.03;;;2.72;;
55031;SDS011;40928;51.076;7.950;2022-08-14T14:11:19;2.72;;;2.50;;
55031;SDS011;40928;51.076;7.950;2022-08-14T14:13:52;2.65;;;2.45;;
55031;SDS011;40928;51.076;7.950;2022-08-14T14:16:23;3.22;;;2.72;;
55031;SDS011;40928;51.076;7.950;2022-08-14T14:18:50;3.00;;;2.70;;
55031;SDS011;40928;51.076;7.950;2022-08-14T14:21:25;2.72;;;2.40;;
55031;SDS011;40928;51.076;7.950;2022-08-14T14:23:54;3.33;;;2.92;;
55031;SDS011;40928;51.076;7.950;2022-08-14T14:26:20;3.33;;;2.40;;
55031;SDS011;40928;51.076;7.950;2022-08-14T14:28:47;3.90;;;2.90;;
55031;SDS011;40928;51.076;7.950;2022-08-14T14:31:20;3.45;;;2.55;;
55031;SDS011;40928;51.076;7.950;2022-08-14T14:33:56;3.08;;;2.80;;
55031;SDS011;40928;51.076;7.950;2022-08-14T14:36:28;3.17;;;2.73;;
55031;SDS011;40928;51.076;7.950;2022-08-14T14:39:00;5.10;;;2.60;;
55031;SDS011;40928;51.076;7.950;2022-08-14T14:41:28;2.50;;;2.30;;
55031;SDS011;40928;51.076;7.950;2022-08-14T14:43:57;2.53;;;2.33;;
55031;SDS011;40928;51.076;7.950;2022-08-14T14:46:23;2.70;;;2.50;;
55031;SDS011;40928;51.076;7.950;2022-08-14T14:48:50;2.75;;;2.55;;
55031;SDS011;40928;51.076;7.950;2022-08-14T14:51:16;3.03;;;2.72;;
55031;SDS011;40928;51.076;7.950;2022-08-14T14:53:44;2.63;;;2.42;;
55031;SDS011;40928;51.076;7.950;2022-08-14T14:56:10;4.60;;;2.67;;
55031;SDS011;40928;51.076;7.950;2022-08-14T14:58:37;3.17;;;2.40;;
55031;SDS011;40928;51.076;7.950;2022-08-14T15:01:07;2.15;;;1.95;;
55031;SDS011;40928;51.076;7.950;2022-08-14T15:03:33;2.65;;;2.40;;
55031;SDS011;40928;51.076;7.950;2022-08-14T15:06:00;3.03;;;2.33;;
55031;SDS011;40928;51.076;7.950;2022-08-14T15:08:26;3.22;;;2.70;;
55031;SDS011;40928;51.076;7.950;2022-08-14T15:11:01;3.42;;;2.40;;
55031;SDS011;40928;51.076;7.950;2022-08-14T15:13:27;5.50;;;2.67;;
55031;SDS011;40928;51.076;7.950;2022-08-14T15:15:53;2.28;;;2.08;;
55031;SDS011;40928;51.076;7.950;2022-08-14T15:18:19;5.03;;;2.38;;
55031;SDS011;40928;51.076;7.950;2022-08-14T15:20:45;2.55;;;2.25;;
55031;SDS011;40928;51.076;7.950;2022-08-14T15:23:12;2.58;;;1.88;;
55031;SDS011;40928;51.076;7.950;2022-08-14T15:25:38;2.17;;;1.98;;
55031;SDS011;40928;51.076;7.950;2022-08-14T15:28:05;2.47;;;2.28;;
55031;SDS011;40928;51.076;7.950;2022-08-14T15:30:37;2.33;;;2.10;;
55031;SDS011;40928;51.076;7.950;2022-08-14T15:33:04;2.55;;;2.03;;
55031;SDS011;40928;51.076;7.950;2022-08-14T15:35:29;2.10;;;1.80;;
55031;SDS011;40928;51.076;7.950;2022-08-14T15:37:55;3.05;;;1.77;;
55031;SDS011;40928;51.076;7.950;2022-08-14T15:40:21;3.58;;;2.50;;